Airfield :
LOGIN :

Register | Disclaimer

   EN    FR    IT 

 










Legend :    VFR   Marginal VFR   IFR   Intensive IFR   Very Intensive IFR
Visi :
Ceiling :
>= 8 km
>= 3000ft
5 to 8 km
1000 to 3000 ft
1500m to 5 km
500 to 1000 ft
800 to 1500m
200 to 500 ft
< 800m
< 200 ft
Symbols :   Thunderstorms  Fog  Heavy snow  Heavy precipitations  Wind > 20 kt
SIGMETs :     Misc.  Thunderstorms  Icing  Turbulence  Mountain Waves  Volcanic Ashes






- Airport Elevation : 187 ft


LPMR - Monte Real Air Base

CURRENT METAR :
  • 201600Z 23008KT 9999 SCT016 15/11 Q1006

EXPIRED METARs :
  • 201500Z 22007KT 190V250 9999 SCT014 FEW016TCU 15/11 Q1006

TAF TAF LPMR
Valid from the 20 at 12:00 until the 21 at 12:00 UTC


201107Z 2012/2112 24012KT 9999 FEW015 SCT025
TEMPO 2012/2104 6000 SHRA FEW008 BKN016 FEW020TCU
PROB30
TEMPO 2012/2017 2000 TSRA SCT008 BKN014 SCT018CB
BECMG 2019/2021 19008KT
BECMG 2103/2105 8000 -RA
PROB40
TEMPO 2104/2112 6000 -RA SCT014 BKN020



MET'MAP, your aeronautical weather chart ! - Copyright ORBIFLY December 2007 - Disclaimer

ORBIFLY MET'MAP TEAM :

Programming & Development : Alexandra Zaïnal
Concept & Development : Baudouin d'Aumeries
Co-Development & Prog : Marc-Olivier Méhu
Technical & hardware support : Manuel Goepfert

Contact : metmap@orbifly.com




SOURCES & CREDITS :

   NOAA